KFEP/FEP METAR and TAF weather

Enter ICAO airport designator
Station Type Date Time Source
KFEP METAR 2019/06/27 09:55 UTC NOAA

KFEP 270955Z AUTO 00000KT 10SM CLR 18/18 A3014 RMK AO2 T01760176


Station Type Date Time Source
KFEP Decoded METAR 2019/06/27 09:55 UTC NOAA

Freeport, Albertus Airport, IL, United States (KFEP) 42-14-47N 089-34-56W
Jun 27, 2019 - 05:55 AM EDT / 2019.06.27 0955 UTC
Wind: Calm:0
Visibility: 10 mile(s):0
Sky conditions: clear
Temperature: 63.7 F (17.6 C)
Dew Point: 63.7 F (17.6 C)
Relative Humidity: 100%
Pressure (altimeter): 30.14 in. Hg (1020 hPa)
ob: KFEP 270955Z AUTO 00000KT 10SM CLR 18/18 A3014 RMK AO2 T01760176
cycle: 10

Station Type Date Time Source
KFEP TAF UTC NOAA

Error!

Example: see airport list